This is the latest recevied weather packets stored in our database for station/object EA1CZ-10. If no packets are shown the sender has not sent any weather packets the latest 10 day(s).
| Time | Temp. | Humidity | Pressure | Rain* | Wind** | Luminosity | Snow |
|---|---|---|---|---|---|---|---|
| 1788293397 | 17.78° C | 66% | 1037.7 hPa | - | - | - | - |
| 1788291596 | 16.67° C | 66% | 1037.5 hPa | - | - | - | - |
| 1788289795 | 12.78° C | 68% | 1037.3 hPa | - | - | - | - |
| 1788287995 | 13.89° C | 67% | 1037.1 hPa | - | - | - | - |
| 1788286195 | 14.44° C | 66% | 1037.2 hPa | - | - | - | - |
| 1788284395 | 15.56° C | 64% | 1037.1 hPa | - | - | - | - |
| 1788282595 | 18.89° C | 61% | 1036.8 hPa | - | - | - | - |
| 1788279000 | 23.89° C | 58% | 1036.4 hPa | - | - | - | - |
| 1788277200 | 23.89° C | 58% | 1036.4 hPa | - | - | - | - |
| 1788275400 | 25.56° C | 59% | 1036.3 hPa | - | - | - | - |
| 1788273600 | 24.44° C | 60% | 1036.1 hPa | - | - | - | - |
| 1788271800 | 23.33° C | 61% | 1036.2 hPa | - | - | - | - |
| 1788270000 | 22.78° C | 62% | 1036.2 hPa | - | - | - | - |
| 1788268199 | 21.11° C | 64% | 1036.4 hPa | - | - | - | - |
| 1788266399 | 20° C | 65% | 1036.9 hPa | - | - | - | - |
| 1788264599 | 18.33° C | 66% | 1036.9 hPa | - | - | - | - |
| 1788262799 | 17.78° C | 67% | 1036.8 hPa | - | - | - | - |
| 1788260999 | 17.22° C | 68% | 1037 hPa | - | - | - | - |
| 1788259232 | 17.22° C | 68% | 1036.9 hPa | - | - | - | - |
| 1788259199 | 17.22° C | 68% | 1036.9 hPa | - | - | - | - |
| 1788257399 | 16.67° C | 68% | 1036.9 hPa | - | - | - | - |
| 1788255599 | 14.44° C | 69% | 1036.7 hPa | - | - | - | - |
| 1788253799 | 15° C | 68% | 1036.6 hPa | - | - | - | - |
| 1788251998 | 17.78° C | 67% | 1036.4 hPa | - | - | - | - |
| 1788250198 | 17.78° C | 67% | 1036.2 hPa | - | - | - | - |
* Rain since midnight (hover to see other rain measurements)
** Current wind speed in m/s (hover to see current wind gust speed)